Latest Coastal Weather Observations for Frankston

IDV60701

Issued at 4:32 pm EST Tuesday 25 April 2017 (issued every 10 minutes, with the page automatically refreshed every 10 minutes)

About coastal observations | Map of coastal stations | Coastal observations for VIC | Marine services | Other Formats
Station Details ID: 086371 Name: FRANKSTON AWS Lat: -38.15 Lon: 145.12 Height: 6.0 m
Data from the previous 72 hours. | See also: Recent months at Frankston
Date/Time
EST
Temp
°C
Wind Pressure Rain since
9am
mm
Weather Cloud Vis
km
Sea
Height
m
Swell
Dir  Spd
kts
Gust
kts
hPa Trend Height
m
Period
s
Dir
25/04:30pm 16.8 WSW 6 7 - - - - - - - - - -
25/04:00pm 16.7 SW 6 9 - - - - - - - - - -
25/03:30pm 16.6 WSW 7 9 - - - - - - - - - -
25/03:00pm 16.5 SW 10 13 - - - - - - - - - -
25/02:30pm 16.7 WSW 11 15 - - - - - - - - - -
25/02:00pm 16.5 WSW 13 16 - - - - - - - - - -
25/01:30pm 15.8 WSW 17 22 - - - - - - - - - -
25/01:00pm 15.5 WSW 8 15 - - - - - - - - - -
25/12:30pm 15.3 SW 7 10 - - - - - - - - - -
25/12:00pm 16.0 WSW 11 14 - - - - - - - - - -
25/11:30am 15.7 WSW 11 16 - - - - - - - - - -
25/11:00am 15.8 SW 13 16 - - - - - - - - - -
25/10:30am 16.2 WSW 12 16 - - - - - - - - - -
25/10:00am 16.3 WSW 11 13 - - - - - - - - - -
25/09:30am 16.6 WSW 16 22 - - - - - - - - - -
25/09:00am 16.5 WSW 16 19 - - - - - - - - - -
25/08:30am 17.0 W 14 16 - - - - - - - - - -
25/08:00am 16.7 WNW 14 17 - - - - - - - - - -
25/07:42am 16.8 NNW 14 31 - - - - - - - - - -
25/07:30am 17.6 N 12 15 - - - - - - - - - -
25/07:00am 17.5 N 12 15 - - - - - - - - - -
25/06:30am 17.5 N 12 14 - - - - - - - - - -
25/06:00am 17.8 N 11 14 - - - - - - - - - -
25/05:30am 17.6 N 10 12 - - - - - - - - - -
25/05:00am 17.2 N 7 9 - - - - - - - - - -
25/04:30am 16.8 NE 3 4 - - - - - - - - - -
25/04:00am 16.9 NNE 5 7 - - - - - - - - - -
25/03:30am 16.8 NNE 4 6 - - - - - - - - - -
25/03:00am 16.7 NE 3 5 - - - - - - - - - -
25/02:30am 16.7 NE 3 4 - - - - - - - - - -
25/02:00am 16.7 CALM 0 0 - - - - - - - - - -
25/01:30am 16.7 CALM 0 0 - - - - - - - - - -
25/01:00am 16.9 CALM 0 1 - - - - - - - - - -
25/12:30am 17.0 CALM 0 0 - - - - - - - - - -
25/12:00am 16.7 SSW 2 4 - - - - - - - - - -
 
Date/Time
EST
Temp
°C
Wind Pressure Rain since
9am
mm
Weather Cloud Vis
km
Sea
Height
m
Swell
Dir  Spd
kts
Gust
kts
hPa Trend Height
m
Period
s
Dir
24/11:30pm 16.6 SE 4 5 - - - - - - - - - -
24/11:00pm 16.7 ESE 6 12 - - - - - - - - - -
24/10:30pm 16.4 SSE 9 16 - - - - - - - - - -
24/10:00pm 16.6 SSE 7 12 - - - - - - - - - -
24/09:30pm 17.0 SSE 6 9 - - - - - - - - - -
24/09:00pm 17.4 S 5 8 - - - - - - - - - -
24/08:30pm 17.4 SSE 6 8 - - - - - - - - - -
24/08:00pm 17.7 SE 6 8 - - - - - - - - - -
24/07:30pm 17.6 SE 6 9 - - - - - - - - - -
24/07:00pm 17.9 SE 6 9 - - - - - - - - - -
24/06:30pm 18.1 SSE 5 8 - - - - - - - - - -
24/06:00pm 18.3 SE 5 8 - - - - - - - - - -
24/05:30pm 18.6 SSE 4 8 - - - - - - - - - -
24/05:00pm 20.3 SE 4 7 - - - - - - - - - -
24/04:30pm 21.4 SE 1 5 - - - - - - - - - -
24/04:00pm 22.1 CALM 0 0 - - - - - - - - - -
24/03:30pm 22.1 CALM 0 0 - - - - - - - - - -
24/03:00pm 21.9 CALM 0 0 - - - - - - - - - -
24/02:30pm 21.6 CALM 0 0 - - - - - - - - - -
24/02:00pm 20.3 CALM 0 0 - - - - - - - - - -
24/01:30pm 19.9 CALM 0 0 - - - - - - - - - -
24/01:00pm 19.2 WSW 2 2 - - - - - - - - - -
24/12:30pm 18.8 W 1 2 - - - - - - - - - -
24/12:00pm 18.6 NNW 3 4 - - - - - - - - - -
24/11:30am 19.4 NNE 3 5 - - - - - - - - - -
24/11:00am 18.4 NNE 3 5 - - - - - - - - - -
24/10:30am 17.6 NNE 4 6 - - - - - - - - - -
24/10:00am 17.0 N 4 4 - - - - - - - - - -
24/09:30am 16.8 NNE 3 5 - - - - - - - - - -
24/09:00am 16.3 NNE 1 3 - - - - - - - - - -
24/08:30am 16.1 NNE 1 3 - - - - - - - - - -
24/08:00am 16.0 ENE 1 2 - - - - - - - - - -
24/07:30am 15.8 ESE 1 3 - - - - - - - - - -
24/07:00am 15.8 ENE 3 4 - - - - - - - - - -
24/06:30am 15.8 E 2 3 - - - - - - - - - -
24/06:00am 15.8 ESE 2 3 - - - - - - - - - -
24/05:30am 15.8 ESE 2 3 - - - - - - - - - -
24/05:00am 15.8 CALM 0 0 - - - - - - - - - -
24/04:30am 15.7 CALM 0 0 - - - - - - - - - -
24/04:00am 15.9 CALM 0 0 - - - - - - - - - -
24/03:30am 16.0 CALM 0 0 - - - - - - - - - -
24/03:00am 16.3 CALM 0 0 - - - - - - - - - -
24/02:30am 16.0 SE 2 2 - - - - - - - - - -
24/02:00am 16.1 ESE 1 2 - - - - - - - - - -
24/01:30am 16.1 ESE 2 3 - - - - - - - - - -
24/01:00am 16.0 ESE 1 2 - - - - - - - - - -
24/12:30am 15.8 ESE 3 4 - - - - - - - - - -
24/12:00am 15.5 SE 1 2 - - - - - - - - - -
 
Date/Time
EST
Temp
°C
Wind Pressure Rain since
9am
mm
Weather Cloud Vis
km
Sea
Height
m
Swell
Dir  Spd
kts
Gust
kts
hPa Trend Height
m
Period
s
Dir
23/11:30pm 15.2 SE 2 3 - - - - - - - - - -
23/11:00pm 14.9 ESE 2 4 - - - - - - - - - -
23/10:30pm 15.1 E 1 2 - - - - - - - - - -
23/10:00pm 15.1 ESE 1 3 - - - - - - - - - -
23/09:30pm 15.9 CALM 0 2 - - - - - - - - - -
23/09:00pm 16.4 CALM 0 0 - - - - - - - - - -
23/08:30pm 16.4 S 1 2 - - - - - - - - - -
23/08:00pm 16.5 S 2 3 - - - - - - - - - -
23/07:30pm 16.9 S 2 4 - - - - - - - - - -
23/07:00pm 17.3 SSW 3 3 - - - - - - - - - -
23/06:30pm 17.7 SW 4 6 - - - - - - - - - -
23/06:00pm 17.9 WSW 5 6 - - - - - - - - - -
23/05:30pm 17.7 WSW 5 6 - - - - - - - - - -
23/05:00pm 17.8 WSW 7 8 - - - - - - - - - -
23/04:30pm 18.1 WSW 6 7 - - - - - - - - - -
23/04:00pm 17.9 WSW 6 7 - - - - - - - - - -
23/03:30pm 17.9 W 5 6 - - - - - - - - - -
23/03:00pm 17.9 W 5 6 - - - - - - - - - -
23/02:30pm 17.9 W 3 4 - - - - - - - - - -
23/02:00pm 17.7 WSW 3 4 - - - - - - - - - -
23/01:30pm 18.0 NW 2 2 - - - - - - - - - -
23/01:00pm 17.8 NW 3 4 - - - - - - - - - -
23/12:30pm 17.4 NNW 4 5 - - - - - - - - - -
23/12:00pm 17.4 N 4 5 - - - - - - - - - -
23/11:30am 17.2 NNW 4 6 - - - - - - - - - -
23/11:00am 17.1 NNW 5 7 - - - - - - - - - -
23/10:30am 17.0 NNW 8 9 - - - - - - - - - -
23/10:00am 16.9 NNW 7 9 - - - - - - - - - -
23/09:30am 16.9 NNW 6 9 - - - - - - - - - -
23/09:00am 16.7 N 6 7 - - - - - - - - - -
23/08:30am 16.3 N 7 9 - - - - - - - - - -
23/08:00am 17.0 NNW 5 7 - - - - - - - - - -
23/07:30am 17.1 NW 5 6 - - - - - - - - - -
23/07:00am 17.2 WNW 6 7 - - - - - - - - - -
23/06:30am 17.3 WNW 8 9 - - - - - - - - - -
23/06:00am 17.3 NW 7 8 - - - - - - - - - -
23/05:30am 17.2 NNW 6 7 - - - - - - - - - -
23/05:00am 17.3 NNW 6 7 - - - - - - - - - -
23/04:30am 17.5 NW 6 7 - - - - - - - - - -
23/04:00am 17.3 WNW 5 6 - - - - - - - - - -
23/03:30am 17.4 W 6 7 - - - - - - - - - -
23/03:00am 17.4 W 7 8 - - - - - - - - - -
23/02:30am 17.5 W 7 8 - - - - - - - - - -
23/02:00am 17.5 W 8 9 - - - - - - - - - -
23/01:30am 17.6 WNW 6 7 - - - - - - - - - -
23/01:00am 17.5 WNW 5 7 - - - - - - - - - -
23/12:30am 17.6 NW 7 9 - - - - - - - - - -
23/12:00am 17.4 NW 8 10 - - - - - - - - - -
 
Date/Time
EST
Temp
°C
Wind Pressure Rain since
9am
mm
Weather Cloud Vis
km
Sea
Height
m
Swell
Dir  Spd
kts
Gust
kts
hPa Trend Height
m
Period
s
Dir
22/11:30pm 16.2 CALM 0 0 - - - - - - - - - -
22/11:00pm 15.9 CALM 0 0 - - - - - - - - - -
22/10:30pm 16.5 CALM 0 0 - - - - - - - - - -
22/10:00pm 16.4 CALM 0 0 - - - - - - - - - -
22/09:30pm 16.7 CALM 0 0 - - - - - - - - - -
22/09:00pm 16.8 CALM 0 0 - - - - - - - - - -
22/08:30pm 17.7 SW 4 5 - - - - - - - - - -
22/08:00pm 18.2 SSW 2 4 - - - - - - - - - -
22/07:30pm 18.6 SW 3 4 - - - - - - - - - -
22/07:00pm 18.8 SSW 3 4 - - - - - - - - - -
22/06:30pm 19.5 SW 4 5 - - - - - - - - - -
22/06:00pm 19.7 SW 4 5 - - - - - - - - - -
22/05:30pm 19.9 WSW 4 7 - - - - - - - - - -
22/05:00pm 19.9 WSW 6 6 - - - - - - - - - -

Other Formats:

Comma delimited format used in spreadsheet applications
http://www.bom.gov.au/fwo/IDV60701/IDV60701.94871.axf

JavaScript Object Notation format (JSON) in row-major order
http://www.bom.gov.au/fwo/IDV60701/IDV60701.94871.json